createdAt,value
2022-08-28T00:00:14.163Z,19.40
2022-08-28T00:02:41.296Z,19.30
2022-08-28T00:05:11.537Z,19.30
2022-08-28T00:07:38.293Z,19.30
2022-08-28T00:10:06.130Z,19.50
2022-08-28T00:12:32.550Z,19.30
2022-08-28T00:15:00.188Z,19.30
2022-08-28T00:17:26.689Z,19.40
2022-08-28T00:19:53.150Z,19.20
2022-08-28T00:22:19.662Z,19.10
2022-08-28T00:24:46.146Z,19.20
2022-08-28T00:27:31.135Z,19.10
2022-08-28T00:29:57.600Z,19.10
2022-08-28T00:32:27.025Z,19.10
2022-08-28T00:34:53.602Z,19.10
2022-08-28T00:37:20.052Z,18.90
2022-08-28T00:39:51.192Z,18.90
2022-08-28T00:42:18.340Z,19.00
2022-08-28T00:44:47.794Z,19.00
2022-08-28T00:47:14.352Z,19.10
2022-08-28T00:49:48.724Z,19.10
2022-08-28T00:52:16.086Z,19.20
2022-08-28T00:54:59.369Z,18.90
2022-08-28T00:57:49.696Z,19.00
2022-08-28T01:00:18.317Z,19.10
2022-08-28T01:02:44.819Z,19.20
2022-08-28T01:05:13.060Z,19.30
2022-08-28T01:07:40.558Z,19.30
2022-08-28T01:10:12.691Z,19.20
2022-08-28T01:12:39.203Z,19.30
2022-08-28T01:15:11.780Z,19.30
2022-08-28T01:17:43.810Z,19.40
2022-08-28T01:20:16.126Z,19.40
2022-08-28T01:22:50.303Z,19.10
2022-08-28T01:25:21.155Z,19.20
2022-08-28T01:27:47.800Z,19.20
2022-08-28T01:30:18.507Z,19.10
2022-08-28T01:32:47.872Z,19.00
2022-08-28T01:35:18.091Z,19.10
2022-08-28T01:37:45.723Z,19.00
2022-08-28T01:40:17.693Z,19.00
2022-08-28T01:42:44.645Z,19.00
2022-08-28T01:45:14.793Z,19.10
2022-08-28T01:47:42.826Z,19.00
2022-08-28T01:50:11.759Z,19.10
2022-08-28T01:52:38.989Z,19.10
2022-08-28T01:55:06.665Z,19.20
2022-08-28T01:57:33.926Z,19.10
2022-08-28T02:00:00.417Z,19.10
2022-08-28T02:02:26.858Z,19.00
2022-08-28T02:04:53.794Z,19.00
2022-08-28T02:07:20.388Z,19.00
2022-08-28T02:09:46.838Z,19.00
2022-08-28T02:12:13.275Z,19.20
2022-08-28T02:14:39.767Z,18.90
2022-08-28T02:17:06.223Z,19.10
2022-08-28T02:19:32.679Z,18.90
2022-08-28T02:21:59.287Z,18.90
2022-08-28T02:24:25.797Z,18.90
2022-08-28T02:26:52.335Z,18.80
2022-08-28T02:29:18.939Z,18.80
2022-08-28T02:31:45.649Z,18.60
2022-08-28T02:34:12.090Z,18.60
2022-08-28T02:36:42.565Z,18.70
2022-08-28T02:39:09.572Z,18.60
2022-08-28T02:41:36.095Z,18.50
2022-08-28T02:44:02.685Z,18.50
2022-08-28T02:46:29.556Z,18.50
2022-08-28T02:48:56.451Z,18.40
2022-08-28T02:51:24.224Z,18.30
2022-08-28T02:53:52.170Z,18.30
2022-08-28T02:56:19.021Z,18.40
2022-08-28T02:58:45.463Z,18.50
2022-08-28T03:01:13.311Z,18.40
2022-08-28T03:03:41.485Z,18.40
2022-08-28T03:06:09.391Z,18.50
2022-08-28T03:08:35.870Z,18.50
2022-08-28T03:11:02.313Z,18.50
2022-08-28T03:13:30.047Z,18.50
2022-08-28T03:15:57.238Z,18.40
2022-08-28T03:18:25.705Z,18.40
2022-08-28T03:20:53.700Z,18.40
2022-08-28T03:23:26.294Z,18.40
2022-08-28T03:26:24.057Z,18.40
2022-08-28T03:28:52.738Z,18.50
2022-08-28T03:31:23.925Z,18.30
2022-08-28T03:33:51.216Z,18.20
2022-08-28T03:36:21.499Z,18.30
2022-08-28T03:38:49.359Z,18.30
2022-08-28T03:41:18.995Z,18.30
2022-08-28T03:43:45.779Z,18.10
2022-08-28T03:46:15.234Z,18.10
2022-08-28T03:48:42.672Z,18.30
2022-08-28T03:51:14.840Z,18.20
2022-08-28T03:53:42.422Z,18.10
2022-08-28T03:56:12.560Z,18.20
2022-08-28T03:58:40.747Z,18.30
2022-08-28T04:01:08.097Z,18.10
2022-08-28T04:03:34.906Z,18.10
2022-08-28T04:06:01.692Z,18.10
2022-08-28T04:08:29.357Z,18.10
2022-08-28T04:10:56.151Z,18.10
2022-08-28T04:13:22.975Z,18.10
2022-08-28T04:16:00.992Z,18.00
2022-08-28T04:18:28.125Z,17.90
2022-08-28T04:21:03.367Z,17.90
2022-08-28T04:23:30.139Z,17.90
2022-08-28T04:25:56.672Z,17.70
2022-08-28T04:28:24.830Z,17.70
2022-08-28T04:30:54.503Z,17.60
2022-08-28T04:33:22.930Z,17.50
2022-08-28T04:35:49.490Z,17.60
2022-08-28T04:38:16.266Z,17.60
2022-08-28T04:40:43.151Z,17.60
2022-08-28T04:43:10.346Z,17.60
2022-08-28T04:45:41.381Z,17.50
2022-08-28T04:48:09.067Z,17.50
2022-08-28T04:50:42.362Z,17.50
2022-08-28T04:53:09.242Z,17.60
2022-08-28T04:55:54.304Z,17.50
2022-08-28T04:58:23.635Z,17.40
2022-08-28T05:00:52.816Z,17.40
2022-08-28T05:03:20.135Z,17.30
2022-08-28T05:05:51.036Z,17.20
2022-08-28T05:08:20.364Z,17.30
2022-08-28T05:10:48.472Z,17.30
2022-08-28T05:13:16.480Z,17.10
2022-08-28T05:15:45.860Z,17.00
2022-08-28T05:18:14.202Z,17.00
2022-08-28T05:20:42.802Z,16.80
2022-08-28T05:23:10.094Z,17.00
2022-08-28T05:25:39.505Z,16.80
2022-08-28T05:28:11.427Z,16.90
2022-08-28T05:30:40.202Z,16.80
2022-08-28T05:33:07.958Z,16.80
2022-08-28T05:35:39.921Z,16.90
2022-08-28T05:38:06.924Z,16.80
2022-08-28T05:40:34.354Z,16.70
2022-08-28T05:43:00.862Z,16.80
2022-08-28T05:45:27.303Z,16.80
2022-08-28T05:47:54.067Z,16.90
2022-08-28T05:50:20.570Z,17.00
2022-08-28T05:52:47.460Z,17.00
2022-08-28T05:55:14.320Z,16.90
2022-08-28T05:57:41.380Z,16.70
2022-08-28T06:00:13.696Z,16.70
2022-08-28T06:02:42.068Z,16.90
2022-08-28T06:05:09.403Z,16.70
2022-08-28T06:07:39.660Z,17.00
2022-08-28T06:10:07.403Z,17.10
2022-08-28T06:12:37.333Z,17.00
2022-08-28T06:15:04.090Z,17.00
2022-08-28T06:17:31.095Z,16.90
2022-08-28T06:19:57.539Z,16.80
2022-08-28T06:22:24.071Z,16.90
2022-08-28T06:24:50.674Z,16.90
2022-08-28T06:27:17.159Z,17.00
2022-08-28T06:29:44.717Z,17.00
2022-08-28T06:32:11.255Z,17.10
2022-08-28T06:34:37.782Z,17.00
2022-08-28T06:37:04.233Z,17.20
2022-08-28T06:39:30.857Z,17.30
2022-08-28T06:41:57.327Z,17.50
2022-08-28T06:44:23.838Z,17.40
2022-08-28T06:46:52.917Z,17.40
2022-08-28T06:49:19.990Z,17.60
2022-08-28T06:51:46.560Z,17.80
2022-08-28T06:54:17.295Z,17.80
2022-08-28T06:56:48.311Z,17.80
2022-08-28T06:59:14.933Z,17.90
2022-08-28T07:01:41.492Z,17.90
2022-08-28T07:04:10.317Z,17.90
2022-08-28T07:06:39.707Z,17.90
2022-08-28T07:09:08.622Z,17.80
2022-08-28T07:11:36.673Z,18.00
2022-08-28T07:14:04.467Z,18.10
2022-08-28T07:16:34.206Z,18.80
2022-08-28T07:19:04.280Z,18.50
2022-08-28T07:21:31.772Z,18.40
2022-08-28T07:23:58.360Z,18.10
2022-08-28T07:26:26.080Z,18.10
2022-08-28T07:29:09.364Z,18.10
2022-08-28T07:31:39.372Z,18.70
2022-08-28T07:34:05.826Z,19.00
2022-08-28T07:36:32.319Z,18.50
2022-08-28T07:38:59.651Z,19.00
2022-08-28T07:41:28.843Z,18.80
2022-08-28T07:44:13.745Z,18.50
2022-08-28T07:46:41.158Z,18.00
2022-08-28T07:49:08.751Z,18.50
2022-08-28T07:51:35.695Z,18.20
2022-08-28T07:54:04.200Z,18.50
2022-08-28T07:56:31.642Z,18.40
2022-08-28T07:58:58.405Z,18.90
2022-08-28T08:01:27.145Z,18.20
2022-08-28T08:03:55.902Z,18.00
2022-08-28T08:06:31.021Z,18.00
2022-08-28T08:09:03.323Z,18.00
2022-08-28T08:11:32.475Z,18.20
2022-08-28T08:14:05.456Z,18.10
2022-08-28T08:16:35.122Z,18.20
2022-08-28T08:19:01.872Z,18.70
2022-08-28T08:21:30.411Z,18.50
2022-08-28T08:23:57.339Z,18.20
2022-08-28T08:26:26.032Z,18.10
2022-08-28T08:28:52.504Z,18.20
2022-08-28T08:31:26.225Z,17.90
2022-08-28T08:33:55.962Z,18.10
2022-08-28T08:36:24.682Z,18.00
2022-08-28T08:38:59.882Z,18.20
2022-08-28T08:41:48.401Z,18.00
2022-08-28T08:44:33.527Z,18.20
2022-08-28T08:47:22.569Z,18.60
2022-08-28T08:49:54.539Z,18.00
2022-08-28T08:52:45.563Z,18.10
2022-08-28T08:55:24.949Z,18.50
2022-08-28T08:58:00.730Z,18.40
2022-08-28T09:00:28.517Z,18.40
2022-08-28T09:03:04.542Z,18.60
2022-08-28T09:06:00.503Z,18.30
2022-08-28T09:08:47.471Z,18.70
2022-08-28T09:11:29.183Z,18.30
2022-08-28T09:14:20.506Z,18.80
2022-08-28T09:16:47.519Z,18.60
2022-08-28T09:19:19.215Z,18.70
2022-08-28T09:21:47.214Z,19.00
2022-08-28T09:24:26.478Z,18.70
2022-08-28T09:26:56.465Z,18.80
2022-08-28T09:29:36.730Z,19.00
2022-08-28T09:32:23.419Z,19.00
2022-08-28T09:35:23.952Z,18.90
2022-08-28T09:37:50.542Z,18.60
2022-08-28T09:40:22.405Z,18.80
2022-08-28T09:43:27.729Z,18.50
2022-08-28T09:46:16.521Z,18.90
2022-08-28T09:48:44.818Z,19.40
2022-08-28T09:51:28.592Z,19.30
2022-08-28T09:53:54.976Z,19.50
2022-08-28T09:56:35.583Z,19.20
2022-08-28T09:59:06.674Z,19.50
2022-08-28T10:01:53.526Z,19.20
2022-08-28T10:04:45.390Z,18.90
2022-08-28T10:07:18.459Z,19.30
2022-08-28T10:09:57.138Z,19.00
2022-08-28T10:12:45.836Z,19.00
2022-08-28T10:15:22.012Z,19.20
2022-08-28T10:18:14.063Z,19.00
2022-08-28T10:20:55.093Z,18.70
2022-08-28T10:23:45.723Z,18.30
2022-08-28T10:26:28.787Z,18.70
2022-08-28T10:29:41.588Z,18.70
2022-08-28T10:32:46.794Z,18.70
2022-08-28T10:35:25.412Z,18.50
2022-08-28T10:37:57.659Z,18.60
2022-08-28T10:40:29.422Z,18.90
2022-08-28T10:43:03.924Z,19.30
2022-08-28T10:45:32.762Z,19.10
2022-08-28T10:48:07.296Z,19.40
2022-08-28T10:50:47.879Z,19.00
2022-08-28T10:53:19.348Z,19.00
2022-08-28T10:55:54.228Z,18.70
2022-08-28T10:58:25.560Z,19.10
2022-08-28T11:00:56.846Z,19.10
2022-08-28T11:03:35.433Z,18.70
2022-08-28T11:06:11.831Z,18.60
2022-08-28T11:08:39.731Z,18.30
2022-08-28T11:11:13.591Z,18.30
2022-08-28T11:13:49.148Z,18.60
2022-08-28T11:16:22.563Z,18.40
2022-08-28T11:19:06.268Z,18.40
2022-08-28T11:21:44.424Z,18.50
2022-08-28T11:24:26.329Z,18.50
2022-08-28T11:27:18.464Z,18.60
2022-08-28T11:30:28.652Z,18.30
2022-08-28T11:32:59.378Z,18.50
2022-08-28T11:35:42.999Z,18.90
2022-08-28T11:38:10.614Z,18.90
2022-08-28T11:40:52.518Z,18.60
2022-08-28T11:43:21.705Z,18.90
2022-08-28T11:45:48.311Z,18.90
2022-08-28T11:48:33.694Z,18.80
2022-08-28T11:51:20.100Z,18.70
2022-08-28T11:53:59.765Z,18.80
2022-08-28T11:56:44.511Z,18.70
2022-08-28T11:59:42.336Z,18.70
2022-08-28T12:02:33.749Z,18.50
2022-08-28T12:05:00.270Z,18.60
2022-08-28T12:07:34.575Z,18.80
2022-08-28T12:10:05.026Z,18.90
2022-08-28T12:12:53.377Z,19.00
2022-08-28T12:15:39.363Z,19.20
2022-08-28T12:18:11.920Z,19.20
2022-08-28T12:20:58.535Z,19.00
2022-08-28T12:23:31.550Z,19.40
2022-08-28T12:26:22.553Z,19.50
2022-08-28T12:28:58.646Z,19.80
2022-08-28T12:32:02.626Z,19.80
2022-08-28T12:34:50.134Z,19.70
2022-08-28T12:37:43.974Z,19.80
2022-08-28T12:40:40.127Z,19.40
2022-08-28T12:43:15.555Z,19.30
2022-08-28T12:45:58.033Z,19.60
2022-08-28T12:48:29.132Z,19.40
2022-08-28T12:51:03.301Z,19.60
2022-08-28T12:53:38.950Z,19.30
2022-08-28T12:56:07.516Z,19.50
2022-08-28T12:58:36.745Z,19.80
2022-08-28T13:01:09.158Z,20.00
2022-08-28T13:03:44.702Z,19.90
2022-08-28T13:06:11.174Z,20.10
2022-08-28T13:08:38.711Z,20.40
2022-08-28T13:11:05.811Z,20.40
2022-08-28T13:13:37.791Z,20.60
2022-08-28T13:16:12.771Z,21.10
2022-08-28T13:18:52.060Z,21.10
2022-08-28T13:21:33.971Z,21.50
2022-08-28T13:24:23.920Z,21.40
2022-08-28T13:27:00.910Z,22.30
2022-08-28T13:29:27.510Z,22.00
2022-08-28T13:32:08.464Z,22.90
2022-08-28T13:34:39.014Z,22.90
2022-08-28T13:37:50.507Z,23.00
2022-08-28T13:43:15.742Z,23.70
2022-08-28T13:45:45.153Z,23.70
2022-08-28T13:48:14.044Z,23.00
2022-08-28T13:50:46.554Z,23.60
2022-08-28T13:53:15.400Z,23.90
2022-08-28T13:55:42.972Z,23.80
2022-08-28T13:58:10.812Z,23.80
2022-08-28T14:00:41.625Z,24.40
2022-08-28T14:03:26.711Z,23.70
2022-08-28T14:05:54.243Z,24.10
2022-08-28T14:08:21.909Z,24.00
2022-08-28T14:10:48.801Z,23.90
2022-08-28T14:13:15.884Z,24.60
2022-08-28T14:15:42.309Z,24.50
2022-08-28T14:18:08.839Z,24.70
2022-08-28T14:20:35.609Z,24.90
2022-08-28T14:23:02.117Z,25.30
2022-08-28T14:25:28.609Z,25.60
2022-08-28T14:27:55.886Z,25.40
2022-08-28T14:30:23.396Z,25.70
2022-08-28T14:32:52.181Z,26.60
2022-08-28T14:35:18.735Z,26.50
2022-08-28T14:37:45.601Z,26.30
2022-08-28T14:40:12.990Z,25.80
2022-08-28T14:42:41.775Z,26.40
2022-08-28T14:45:08.610Z,26.50
2022-08-28T14:47:35.057Z,26.60
2022-08-28T14:50:01.555Z,26.60
2022-08-28T14:52:28.331Z,26.90
2022-08-28T14:54:55.793Z,26.80
2022-08-28T14:57:22.448Z,26.50
2022-08-28T14:59:49.408Z,26.60
2022-08-28T15:02:15.859Z,26.40
2022-08-28T15:04:42.428Z,26.30
2022-08-28T15:07:10.819Z,26.80
2022-08-28T15:09:40.537Z,27.00
2022-08-28T15:12:07.285Z,26.60
2022-08-28T15:14:34.570Z,25.90
2022-08-28T15:17:01.228Z,26.20
2022-08-28T15:19:28.166Z,26.10
2022-08-28T15:21:59.011Z,25.60
2022-08-28T15:24:29.929Z,26.10
2022-08-28T15:26:57.848Z,26.20
2022-08-28T15:29:24.340Z,26.30
2022-08-28T15:31:51.318Z,25.80
2022-08-28T15:34:21.686Z,26.20
2022-08-28T15:36:55.085Z,26.60
2022-08-28T15:39:43.212Z,26.50
2022-08-28T15:42:13.109Z,25.90
2022-08-28T15:44:39.593Z,25.60
2022-08-28T15:47:06.836Z,25.00
2022-08-28T15:49:43.449Z,24.80
2022-08-28T15:52:18.539Z,24.90
2022-08-28T15:54:45.037Z,25.00
2022-08-28T15:57:11.607Z,24.80
2022-08-28T15:59:49.177Z,24.40
2022-08-28T16:02:17.795Z,24.30
2022-08-28T16:04:44.292Z,23.80
2022-08-28T16:07:11.779Z,24.00
2022-08-28T16:09:38.302Z,24.40
2022-08-28T16:12:05.059Z,24.40
2022-08-28T16:14:32.941Z,24.10
2022-08-28T16:16:59.784Z,24.10
2022-08-28T16:19:32.684Z,24.10
2022-08-28T16:21:59.129Z,24.00
2022-08-28T16:24:25.973Z,23.50
2022-08-28T16:26:52.494Z,23.90
2022-08-28T16:29:18.954Z,24.00
2022-08-28T16:31:47.868Z,23.70
2022-08-28T16:34:14.903Z,23.70
2022-08-28T16:36:48.467Z,23.70
2022-08-28T16:39:15.198Z,23.50
2022-08-28T16:41:43.388Z,23.50
2022-08-28T16:44:09.872Z,23.30
2022-08-28T16:46:36.400Z,23.60
2022-08-28T16:49:03.731Z,23.40
2022-08-28T16:51:30.207Z,23.30
2022-08-28T16:53:57.642Z,22.80
2022-08-28T16:56:24.476Z,23.20
2022-08-28T16:58:53.107Z,22.80
2022-08-28T17:01:23.865Z,23.10
2022-08-28T17:03:50.517Z,22.80
2022-08-28T17:06:23.489Z,22.80
2022-08-28T17:08:55.937Z,22.60
2022-08-28T17:11:24.454Z,22.10
2022-08-28T17:13:50.928Z,22.00
2022-08-28T17:16:18.462Z,21.90
2022-08-28T17:18:47.496Z,22.10
2022-08-28T17:21:37.447Z,21.80
2022-08-28T17:24:04.265Z,21.60
2022-08-28T17:26:30.708Z,21.80
2022-08-28T17:28:57.171Z,21.10
2022-08-28T17:31:23.726Z,21.20
2022-08-28T17:33:50.253Z,21.50
2022-08-28T17:36:32.414Z,21.30
2022-08-28T17:39:04.141Z,21.40
2022-08-28T17:41:31.975Z,21.20
2022-08-28T17:43:59.388Z,21.10
2022-08-28T17:46:26.142Z,21.00
2022-08-28T17:48:55.387Z,20.90
2022-08-28T17:51:33.826Z,20.60
2022-08-28T17:54:10.816Z,20.50
2022-08-28T17:56:37.953Z,20.30
2022-08-28T17:59:04.972Z,20.20
2022-08-28T18:01:31.573Z,20.10
2022-08-28T18:03:58.430Z,20.00
2022-08-28T18:06:24.979Z,19.80
2022-08-28T18:08:52.065Z,19.60
2022-08-28T18:11:19.537Z,19.50
2022-08-28T18:13:46.432Z,19.40
2022-08-28T18:16:13.029Z,19.30
2022-08-28T18:18:39.623Z,19.10
2022-08-28T18:21:06.150Z,18.90
2022-08-28T18:23:32.700Z,18.70
2022-08-28T18:25:59.175Z,18.70
2022-08-28T18:28:26.609Z,18.60
2022-08-28T18:30:53.906Z,18.30
2022-08-28T18:33:22.417Z,18.20
2022-08-28T18:35:50.871Z,18.20
2022-08-28T18:38:18.315Z,18.10
2022-08-28T18:40:45.991Z,17.90
2022-08-28T18:43:12.714Z,18.10
2022-08-28T18:45:40.586Z,18.10
2022-08-28T18:48:11.064Z,18.10
2022-08-28T18:50:37.937Z,18.10
2022-08-28T18:53:05.384Z,17.90
2022-08-28T18:55:32.916Z,18.00
2022-08-28T18:58:01.279Z,17.90
2022-08-28T19:00:27.978Z,17.80
2022-08-28T19:02:54.907Z,17.80
2022-08-28T19:05:21.547Z,17.70
2022-08-28T19:07:48.472Z,17.70
2022-08-28T19:10:32.621Z,17.70
2022-08-28T19:13:01.383Z,17.60
2022-08-28T19:15:28.687Z,17.50
2022-08-28T19:17:55.463Z,17.40
2022-08-28T19:20:22.055Z,17.40
2022-08-28T19:22:48.725Z,17.20
2022-08-28T19:25:22.478Z,17.10
2022-08-28T19:27:56.366Z,17.10
2022-08-28T19:30:25.952Z,16.90
2022-08-28T19:32:52.679Z,17.00
2022-08-28T19:35:19.433Z,16.80
2022-08-28T19:37:46.371Z,16.80
2022-08-28T19:40:13.480Z,16.70
2022-08-28T19:42:40.384Z,16.70
2022-08-28T19:45:10.208Z,16.70
2022-08-28T19:47:36.679Z,16.50
2022-08-28T19:50:04.867Z,16.50
2022-08-28T19:52:31.343Z,16.50
2022-08-28T19:55:00.917Z,16.40
2022-08-28T19:57:27.422Z,16.30
2022-08-28T19:59:54.918Z,16.20
2022-08-28T20:02:22.808Z,16.10
2022-08-28T20:04:49.295Z,16.20
2022-08-28T20:07:16.312Z,16.10
2022-08-28T20:09:42.747Z,16.00
2022-08-28T20:12:09.208Z,16.00
2022-08-28T20:14:38.970Z,16.00
2022-08-28T20:17:05.458Z,15.90
2022-08-28T20:19:33.495Z,15.80
2022-08-28T20:21:59.990Z,15.70
2022-08-28T20:24:26.654Z,15.70
2022-08-28T20:26:53.398Z,15.60
2022-08-28T20:29:21.718Z,15.60
2022-08-28T20:31:49.671Z,15.50
2022-08-28T20:34:19.163Z,15.50
2022-08-28T20:36:46.213Z,15.40
2022-08-28T20:39:12.773Z,15.30
2022-08-28T20:41:40.452Z,15.20
2022-08-28T20:44:09.470Z,15.20
2022-08-28T20:46:40.766Z,15.00
2022-08-28T20:49:12.947Z,15.10
2022-08-28T20:51:59.279Z,14.90
2022-08-28T20:54:32.796Z,14.90
2022-08-28T20:57:03.599Z,14.90
2022-08-28T20:59:39.426Z,14.80
2022-08-28T21:02:11.838Z,14.70
2022-08-28T21:04:39.820Z,14.70
2022-08-28T21:07:08.397Z,14.60
2022-08-28T21:10:01.454Z,14.50
2022-08-28T21:12:22.395Z,14.50
2022-08-28T21:14:52.312Z,14.50
2022-08-28T21:17:24.371Z,14.50
2022-08-28T21:19:55.825Z,14.40
2022-08-28T21:22:22.303Z,14.40
2022-08-28T21:24:48.902Z,14.40
2022-08-28T21:27:15.432Z,14.30
2022-08-28T21:29:45.024Z,14.30
2022-08-28T21:32:11.562Z,14.20
2022-08-28T21:34:38.014Z,14.20
2022-08-28T21:37:04.464Z,14.20
2022-08-28T21:39:30.985Z,14.10
2022-08-28T21:41:57.705Z,14.00
2022-08-28T21:44:25.006Z,14.00
2022-08-28T21:46:51.493Z,14.00
2022-08-28T21:49:18.089Z,14.00
2022-08-28T21:51:44.736Z,13.90
2022-08-28T21:54:12.857Z,13.90
2022-08-28T21:56:39.372Z,13.80
2022-08-28T21:59:06.309Z,13.80
2022-08-28T22:01:32.854Z,13.80
2022-08-28T22:03:59.351Z,13.70
2022-08-28T22:06:26.429Z,13.60
2022-08-28T22:08:53.944Z,13.60
2022-08-28T22:11:25.252Z,13.60
2022-08-28T22:13:55.385Z,13.50
2022-08-28T22:16:23.010Z,13.50
2022-08-28T22:18:50.448Z,13.40
2022-08-28T22:21:38.682Z,13.40
2022-08-28T22:24:05.363Z,13.40
2022-08-28T22:26:32.946Z,13.30
2022-08-28T22:29:00.549Z,13.30
2022-08-28T22:31:27.260Z,13.30
2022-08-28T22:33:53.817Z,13.20
2022-08-28T22:36:21.454Z,13.30
2022-08-28T22:38:53.338Z,13.20
2022-08-28T22:41:20.568Z,13.20
2022-08-28T22:43:48.293Z,13.10
2022-08-28T22:46:18.684Z,13.10
2022-08-28T22:48:46.116Z,13.00
2022-08-28T22:51:15.675Z,13.00
2022-08-28T22:53:43.230Z,13.00
2022-08-28T22:56:11.338Z,13.00
2022-08-28T22:58:38.804Z,13.00
2022-08-28T23:01:13.047Z,12.90
2022-08-28T23:03:39.970Z,12.90
2022-08-28T23:06:07.857Z,13.00
2022-08-28T23:08:34.917Z,12.90
2022-08-28T23:11:01.573Z,12.90
2022-08-28T23:13:29.431Z,12.80
2022-08-28T23:15:55.967Z,12.90
2022-08-28T23:18:23.662Z,12.90
2022-08-28T23:20:51.432Z,12.90
2022-08-28T23:23:19.015Z,12.80
2022-08-28T23:25:45.873Z,12.80
2022-08-28T23:28:13.365Z,12.70
2022-08-28T23:30:43.993Z,12.60
2022-08-28T23:33:21.193Z,12.60
2022-08-28T23:35:51.535Z,12.60
2022-08-28T23:38:19.509Z,12.60
2022-08-28T23:40:47.983Z,12.50
2022-08-28T23:43:15.011Z,12.60
2022-08-28T23:45:43.509Z,12.60
2022-08-28T23:48:10.353Z,12.60
2022-08-28T23:50:39.627Z,12.60
2022-08-28T23:53:08.366Z,12.60
2022-08-28T23:55:36.126Z,12.60
2022-08-28T23:58:03.646Z,12.50
